77VA weather

Camp Friendship Airfield
Palmyra, Virginia, United States

Public forecast

Using degrees Fahrenheit for public forecast. Weather courtesy of forecast.io.

Closest aviation weather report (METAR) to Camp Friendship Airfield

Closest report is Louisa County Airport/Freeman Field, 16.6 nm (30.8 km) ENE. Retrieved 2020/02/24 02:55 UTC (7 minutes ago):

KLKU 240255Z AUTO 19004KT 10SM CLR 10/M06 A3014 RMK AO2 T00961060

Closest aviation forecast (TAF) to Camp Friendship Airfield

Closest forecast is Charlottesville Albemarle Airport, 17.0 nm (31.5 km) NNW. Retrieved 2020-02-24 00:42 UTC (2 hours ago):

TAF KCHO 232340Z 2400/2424 19005KT P6SM FEW100 SCT250 FM241200 VRB03KT P6SM SCT130 BKN250 FM241700 20005KT P6SM SCT060 OVC110 FM242000 19007KT P6SM SCT025 OVC050